x

Fairweather Ground 105nm West Of Juno, Ak (46083) Wave Buoy

3:50am - Sat 25th Mar 2017 All times are AKDT. -8 hours from GMT.

  • Sig Wave height 3.6ft
  • Swell Direction
  • Peak Period 11s
  • Average Period 8s
  • Wind
    9mph, 11mph gusts
  • Sea Temp 42°f
  • Air Temp 39°f
  • Sea Pressure 1000.4mb
  • Fairweather Ground 105nm West  Of Juno, Ak
  • Fairweather Ground 105nm West  Of Juno, Ak

More Historic Weather Station data

Upgrade to MSW Pro to gain access to the past 30 days of data for over 8000 Wavebouys and Weather Stations around the globe.

Join Pro

Comparision Forecast

View Surf forecast
   
Sat 03/25 3:50am 3.5ft 11s 8s 9 11 mph 1000.4mb 42f 39f
2:50am 3.5ft 13s 8s 9 13 mph 1000.4mb 42f 39f
1:50am 3.5ft 12s 8s 9 11 mph 1000.4mb 42f 39f
12:50am 3.5ft 14s 7s 9 11 mph 1000.5mb 42f 39f
Fri 03/24 11:50pm 3ft 11s 7s 9 11 mph 1000.3mb 42f 39f
10:50pm 3ft 11s 7s 11 13 mph 1000.2mb 42f 39f
9:50pm 2.5ft 12s 6s 11
mph
1000.4mb 42f 39f
8:50pm 2.5ft 14s 6s 11 13 mph 1000.5mb 42f 40f
7:50pm 2.5ft 15s 6s 11
mph
1000.7mb 42f 40f
6:50pm 2.5ft 15s 6s 11
mph
1000.6mb 42f 40f
5:50pm 2.5ft 15s 6s 11 13 mph 1000.8mb 42f 40f
4:50pm 2.5ft 15s 6s 13
mph
1000.9mb 42f 41f
3:50pm 2.5ft 16s 7s 11
mph
1001.1mb 42f 41f
2:50pm 2.5ft 16s 6s 7 9 mph 1001.3mb 42f 40f
1:50pm 2.5ft 16s 7s 9 11 mph 1001.2mb 42f 40f
12:50pm 2.5ft 8s 7s 9 11 mph 1001.4mb 42f 40f
11:50am 2.5ft 8s 7s 9 11 mph 1001.8mb 42f 40f
10:50am 3ft 8s 7s 7 9 mph 1002.1mb 42f 40f
9:50am 2.5ft 9s 7s 4
mph
1002.5mb 42f 40f
8:50am 3ft 12s 6s 2 4 mph 1002.8mb 42f 41f
7:50am 3ft 8s 6s 2 4 mph 1003.1mb 42f 39f
6:50am 3.5ft 8s 6s 2 4 mph 1003.5mb 42f 39f
5:50am 3ft 11s 5s 4 7 mph 1003.8mb 42f 38f
4:50am 3ft 12s 5s 11 16 mph 1003.9mb 42f 38f
3:50am 3.5ft 13s 5s 13 16 mph 1004.2mb 42f 38f
2:50am 3.5ft 10s 5s 11 16 mph 1004.6mb 42f 37f
1:50am 3.5ft 11s 5s 16 20 mph 1004.7mb 42f 38f
12:50am 4ft 4s 5s 11 16 mph 1004.9mb 42f 37f
Thu 03/23 11:50pm 3.5ft 13s 5s 18 22 mph 1004.4mb 42f 39f
10:50pm 3.5ft 12s 5s 13 16 mph 1004.6mb 42f 39f
9:50pm 3.5ft 12s 5s 18 20 mph 1004.6mb 42f 37f
8:50pm 4ft 14s 5s 20 27 mph 1004.2mb 42f 38f
7:50pm 4.5ft 11s 5s 16 20 mph 1004.3mb 42f 40f
6:50pm 5ft 5s 5s 22 27 mph 1004mb 42f 38f
5:50pm 5ft 5s 5s 25 29 mph 1004.1mb 42f 38f
4:50pm 4.5ft 5s 5s 25 29 mph 1004.1mb 42f 39f
3:50pm 4.5ft 5s 5s 22 27 mph 1004.1mb 42f 39f
2:50pm 4.5ft 5s 5s 20 25 mph 1004.3mb 42f 37f
1:50pm 5ft 12s 5s 22 27 mph 1003.8mb 42f 39f
12:50pm 5ft 5s 5s 22 25 mph 1003.5mb 42f 38f
11:50am 4.5ft 13s 5s 22 27 mph 1003mb 41f 38f
10:50am 4.5ft 5s 5s 22 27 mph 1002.6mb 41f 37f
9:50am 4.5ft 13s 5s 22 27 mph 1002.1mb 42f 37f
8:50am 4ft 14s 5s 20 25 mph 1001.7mb 41f 40f
7:50am 3.5ft 4s 5s 11 13 mph 1001.8mb 42f 38f
6:50am 3.5ft 9s 5s 18 22 mph 1001.3mb 42f 39f
5:50am 3.5ft 13s 5s 9 11 mph 1001.5mb 41f 35f
4:50am 3.5ft 9s 6s 16 18 mph 1001.3mb 41f 34f
3:50am 3.5ft 9s 7s 16 18 mph 1001.1mb 41f 38f
2:50am 3.5ft 10s 7s 9 11 mph 1001mb 42f 38f
1:50am 3.5ft 8s 7s 9 11 mph 1000.7mb 42f 38f
12:50am 3.5ft 10s 7s 9 11 mph 1000.3mb 41f 37f
Wed 03/22 11:50pm 4ft 10s 7s 7 9 mph 999.9mb 41f 38f
10:50pm 4ft 10s 7s 13 16 mph 999.8mb 41f 38f
9:50pm 3.5ft 8s 7s 11 16 mph 999.9mb 41f 37f
8:50pm 4.5ft 9s 6s 13 16 mph 999.9mb 41f 37f
7:50pm 4.5ft 10s 6s 13 16 mph 999.6mb 41f 38f
6:50pm 4.5ft 9s 6s 18 20 mph 999.2mb 41f 38f
5:50pm 4.5ft 10s 6s 16 18 mph 999.1mb 42f 39f
4:50pm 5ft 9s 7s 11 13 mph 999mb 41f 40f
3:50pm 4.5ft 10s 7s 9 13 mph 998.8mb 41f 40f
2:50pm 5ft 10s 7s 11 13 mph 998.7mb 41f 40f
1:50pm 5ft 10s 7s 9 11 mph 998.6mb 42f 41f
12:50pm 5ft 10s 7s 2 4 mph 998.7mb 41f 42f
11:50am 5ft 10s 8s 7 9 mph 998.6mb 41f 40f
10:50am 4.5ft 10s 8s 4 7 mph 998.5mb 41f 41f
9:50am 4.5ft 11s 8s 4 7 mph 998.7mb 41f 40f
8:50am 4.5ft 11s 8s 4 7 mph 998.7mb 41f 40f
7:50am 5ft 10s 8s 9 11 mph 998.7mb 41f 40f
6:50am 4.5ft 10s 8s 7
mph
999mb 41f 40f
5:50am 4.5ft 11s 8s 7 9 mph 999mb 41f 40f
4:50am 4.5ft 10s 8s 7 11 mph 999.5mb 41f 40f
3:50am 4.5ft 10s 8s 4 7 mph 999.8mb 41f 40f
2:50am 4.5ft 11s 8s 7
mph
1000mb 41f 40f
1:50am 4ft 13s 7s 7 9 mph 1000.4mb 41f 40f
12:50am 4.5ft 11s 8s 9 11 mph 1000.7mb 41f 40f
Tue 03/21 11:50pm 4.5ft 11s 8s 11 13 mph 1001mb 41f 40f
10:50pm 4ft 13s 8s 11 13 mph 1001.4mb 41f 40f
9:50pm 4.5ft 13s 7s 11 13 mph 1001.8mb 41f 40f
8:50pm 4.5ft 13s 8s 11 13 mph 1002.3mb 41f 40f
7:50pm 4.5ft 13s 7s 11 13 mph 1002.6mb 41f 40f
6:50pm 4.5ft 14s 7s 7 9 mph 1003.2mb 42f 41f
5:50pm 4.5ft 13s 7s 9 11 mph 1003.7mb 42f 40f
4:50pm 4.5ft 13s 6s 7 9 mph 1004.5mb 42f 41f
3:50pm 4.5ft 7s 6s 2
mph
1004.9mb 42f 42f
2:50pm 5ft 14s 6s 4 7 mph 1005.6mb 41f 40f
1:50pm 5ft 14s 6s 7 9 mph 1006.3mb 42f 40f
12:50pm 5ft 14s 6s 11 16 mph 1006.7mb 42f 40f